Airfield :
LOGIN :

Register | Disclaimer

   EN    FR    IT 

 










Legend :    VFR   Marginal VFR   IFR   Intensive IFR   Very Intensive IFR
Visi :
Ceiling :
>= 8 km
>= 3000ft
5 to 8 km
1000 to 3000 ft
1500m to 5 km
500 to 1000 ft
800 to 1500m
200 to 500 ft
< 800m
< 200 ft
Symbols :   Thunderstorms  Fog  Heavy snow  Heavy precipitations  Wind > 20 kt
SIGMETs :     Misc.  Thunderstorms  Icing  Turbulence  Mountain Waves  Volcanic Ashes






- Airport Elevation : 913 ft


LFSX - Luxeuil

CURRENT METAR :
  • 011430Z AUTO 13007KT 9999 ///CB 16/14 Q1013

EXPIRED METARs :
  • 011400Z AUTO 14003KT 9999 ///CB 16/14 Q1013
  • 011330Z AUTO 18003KT 140V220 9999 ///CB 15/13 Q1013
  • 011300Z AUTO 00000KT 9999 ///CB 15/12 Q1013
  • 011230Z AUTO VRB02KT 9999 VCTS ///CB 14/13 Q1013
  • 011200Z AUTO 26005KT 210V010 9999 -TSRA ///CB 14/11 Q1012

TAF TAF LFSX
Valid from the 01 at 15:00 until the 02 at 15:00 UTC


011400Z 0115/0215 VRB03KT 9999 BKN025
TEMPO 0115/0118 3000 TSRA BKN020CB
TEMPO 0118/0124 4000 SHRA BKN020TCU
TEMPO 0200/0207 2000 BR BKN007
TEMPO 0211/0215 4000 SHRA SCT030TCU
PROB40
TEMPO 0212/0215 3000 TSRA SCT030CB



MET'MAP, your aeronautical weather chart ! - Copyright ORBIFLY December 2007 - Disclaimer

ORBIFLY MET'MAP TEAM :

Programming & Development : Alexandra Zaïnal
Concept & original design : Baudouin d'Aumeries
Assistance for programming : Marc-Olivier Méhu
Technical & hardware support : Manuel Goepfert

Contact : metmap@orbifly.com




SOURCES & CREDITS :

   NOAA